sensor_id;sensor_type;location;lat;lon;timestamp;pressure;altitude;pressure_sealevel;temperature;humidity
10064;BME280;5071;52.360;13.134;2022-08-21T00:04:09;101151.91;;;19.29;84.88
10064;BME280;5071;52.360;13.134;2022-08-21T00:09:12;101145.06;;;19.22;84.48
10064;BME280;5071;52.360;13.134;2022-08-21T00:14:14;101148.34;;;19.29;83.06
10064;BME280;5071;52.360;13.134;2022-08-21T00:19:16;101140.66;;;19.19;82.83
10064;BME280;5071;52.360;13.134;2022-08-21T00:24:19;101139.31;;;19.09;83.00
10064;BME280;5071;52.360;13.134;2022-08-21T00:29:22;101139.69;;;19.00;83.05
10064;BME280;5071;52.360;13.134;2022-08-21T00:34:24;101145.50;;;18.89;83.54
10064;BME280;5071;52.360;13.134;2022-08-21T00:39:27;101155.56;;;18.84;83.19
10064;BME280;5071;52.360;13.134;2022-08-21T00:44:29;101162.06;;;18.77;82.73
10064;BME280;5071;52.360;13.134;2022-08-21T00:49:31;101158.88;;;18.67;83.43
10064;BME280;5071;52.360;13.134;2022-08-21T00:54:34;101149.94;;;18.67;83.05
10064;BME280;5071;52.360;13.134;2022-08-21T00:59:40;101158.63;;;18.51;83.80
10064;BME280;5071;52.360;13.134;2022-08-21T01:04:45;101151.97;;;18.38;83.76
10064;BME280;5071;52.360;13.134;2022-08-21T01:09:48;101152.06;;;18.35;83.58
10064;BME280;5071;52.360;13.134;2022-08-21T01:14:50;101150.56;;;18.27;84.01
10064;BME280;5071;52.360;13.134;2022-08-21T01:19:52;101156.28;;;18.18;84.52
10064;BME280;5071;52.360;13.134;2022-08-21T01:24:56;101158.28;;;18.13;85.30
10064;BME280;5071;52.360;13.134;2022-08-21T01:30:02;101143.47;;;18.01;85.29
10064;BME280;5071;52.360;13.134;2022-08-21T01:35:08;101166.06;;;17.96;85.14
10064;BME280;5071;52.360;13.134;2022-08-21T01:40:14;101165.91;;;18.00;85.79
10064;BME280;5071;52.360;13.134;2022-08-21T01:45:16;101167.81;;;17.97;85.87
10064;BME280;5071;52.360;13.134;2022-08-21T01:50:19;101163.41;;;17.94;85.28
10064;BME280;5071;52.360;13.134;2022-08-21T01:55:23;101164.41;;;17.92;85.40
10064;BME280;5071;52.360;13.134;2022-08-21T02:00:25;101160.09;;;17.87;86.15
10064;BME280;5071;52.360;13.134;2022-08-21T02:05:27;101163.06;;;17.78;86.45
10064;BME280;5071;52.360;13.134;2022-08-21T02:10:31;101158.44;;;17.83;85.20
10064;BME280;5071;52.360;13.134;2022-08-21T02:15:33;101154.19;;;17.76;85.32
10064;BME280;5071;52.360;13.134;2022-08-21T02:20:39;101157.94;;;17.72;84.32
10064;BME280;5071;52.360;13.134;2022-08-21T02:25:43;101149.94;;;17.71;83.46
10064;BME280;5071;52.360;13.134;2022-08-21T02:30:46;101145.75;;;17.62;83.55
10064;BME280;5071;52.360;13.134;2022-08-21T02:35:48;101141.25;;;17.62;82.44
10064;BME280;5071;52.360;13.134;2022-08-21T02:40:53;101146.78;;;17.58;82.55
10064;BME280;5071;52.360;13.134;2022-08-21T02:45:57;101150.66;;;17.49;82.72
10064;BME280;5071;52.360;13.134;2022-08-21T02:51:01;101162.50;;;17.43;83.39
10064;BME280;5071;52.360;13.134;2022-08-21T02:56:08;101158.94;;;17.43;83.06
10064;BME280;5071;52.360;13.134;2022-08-21T03:01:11;101153.75;;;17.38;81.85
10064;BME280;5071;52.360;13.134;2022-08-21T03:06:15;101162.72;;;17.37;81.78
10064;BME280;5071;52.360;13.134;2022-08-21T03:11:19;101153.75;;;17.38;81.06
10064;BME280;5071;52.360;13.134;2022-08-21T03:16:20;101145.28;;;17.24;81.68
10064;BME280;5071;52.360;13.134;2022-08-21T03:21:22;101149.94;;;17.17;81.67
10064;BME280;5071;52.360;13.134;2022-08-21T03:26:25;101153.72;;;17.12;81.37
10064;BME280;5071;52.360;13.134;2022-08-21T03:31:28;101153.88;;;17.07;82.22
10064;BME280;5071;52.360;13.134;2022-08-21T03:36:30;101147.13;;;16.95;81.97
10064;BME280;5071;52.360;13.134;2022-08-21T03:41:33;101161.41;;;16.96;81.96
10064;BME280;5071;52.360;13.134;2022-08-21T03:46:35;101161.66;;;16.88;81.54
10064;BME280;5071;52.360;13.134;2022-08-21T03:51:37;101151.06;;;16.83;81.09
10064;BME280;5071;52.360;13.134;2022-08-21T03:56:40;101158.13;;;16.86;80.94
10064;BME280;5071;52.360;13.134;2022-08-21T04:01:51;101156.38;;;16.85;81.10
10064;BME280;5071;52.360;13.134;2022-08-21T04:06:53;101156.50;;;16.80;80.69
10064;BME280;5071;52.360;13.134;2022-08-21T04:11:58;101164.03;;;16.67;81.65
10064;BME280;5071;52.360;13.134;2022-08-21T04:17:00;101170.56;;;16.59;81.78
10064;BME280;5071;52.360;13.134;2022-08-21T04:22:02;101170.78;;;16.51;82.54
10064;BME280;5071;52.360;13.134;2022-08-21T04:27:05;101182.69;;;16.42;83.52
10064;BME280;5071;52.360;13.134;2022-08-21T04:32:07;101173.94;;;16.36;84.26
10064;BME280;5071;52.360;13.134;2022-08-21T04:37:09;101172.13;;;16.36;83.71
10064;BME280;5071;52.360;13.134;2022-08-21T04:42:12;101174.44;;;16.48;83.08
10064;BME280;5071;52.360;13.134;2022-08-21T04:47:14;101184.06;;;16.56;82.60
10064;BME280;5071;52.360;13.134;2022-08-21T04:52:17;101182.00;;;16.64;82.33
10064;BME280;5071;52.360;13.134;2022-08-21T04:57:22;101183.72;;;16.66;82.30
10064;BME280;5071;52.360;13.134;2022-08-21T05:02:40;101188.00;;;16.72;80.45
10064;BME280;5071;52.360;13.134;2022-08-21T05:07:44;101186.72;;;16.85;81.23
10064;BME280;5071;52.360;13.134;2022-08-21T05:12:48;101184.84;;;16.89;80.76
10064;BME280;5071;52.360;13.134;2022-08-21T05:17:50;101201.38;;;17.03;81.65
10064;BME280;5071;52.360;13.134;2022-08-21T05:23:07;101202.78;;;17.15;81.40
10064;BME280;5071;52.360;13.134;2022-08-21T05:28:10;101199.22;;;17.15;80.56
10064;BME280;5071;52.360;13.134;2022-08-21T05:33:13;101202.78;;;17.15;80.60
10064;BME280;5071;52.360;13.134;2022-08-21T05:38:14;101198.72;;;17.30;81.23
10064;BME280;5071;52.360;13.134;2022-08-21T05:43:21;101214.44;;;17.42;78.12
10064;BME280;5071;52.360;13.134;2022-08-21T05:48:24;101215.84;;;17.53;77.28
10064;BME280;5071;52.360;13.134;2022-08-21T05:53:26;101227.28;;;17.59;76.85
10064;BME280;5071;52.360;13.134;2022-08-21T05:58:30;101220.19;;;17.85;74.94
10064;BME280;5071;52.360;13.134;2022-08-21T06:03:35;101212.66;;;17.95;75.35
10064;BME280;5071;52.360;13.134;2022-08-21T06:08:38;101218.31;;;18.12;74.25
10064;BME280;5071;52.360;13.134;2022-08-21T06:13:42;101203.13;;;18.35;73.40
10064;BME280;5071;52.360;13.134;2022-08-21T06:18:44;101208.84;;;18.51;74.03
10064;BME280;5071;52.360;13.134;2022-08-21T06:23:47;101205.66;;;18.63;72.10
10064;BME280;5071;52.360;13.134;2022-08-21T06:28:50;101213.25;;;18.52;72.56
10064;BME280;5071;52.360;13.134;2022-08-21T06:33:52;101221.25;;;18.77;72.30
10064;BME280;5071;52.360;13.134;2022-08-21T06:38:54;101222.31;;;18.73;71.70
10064;BME280;5071;52.360;13.134;2022-08-21T06:44:00;101229.22;;;18.80;70.56
10064;BME280;5071;52.360;13.134;2022-08-21T06:49:02;101232.38;;;18.91;70.26
10064;BME280;5071;52.360;13.134;2022-08-21T06:54:07;101233.53;;;19.08;69.88
10064;BME280;5071;52.360;13.134;2022-08-21T06:59:10;101214.28;;;19.61;68.95
10064;BME280;5071;52.360;13.134;2022-08-21T07:04:12;101218.00;;;19.80;67.78
10064;BME280;5071;52.360;13.134;2022-08-21T07:09:14;101218.81;;;20.03;66.39
10064;BME280;5071;52.360;13.134;2022-08-21T07:14:18;101216.38;;;19.76;67.48
10064;BME280;5071;52.360;13.134;2022-08-21T07:19:21;101220.41;;;19.87;66.23
10064;BME280;5071;52.360;13.134;2022-08-21T07:24:23;101214.22;;;19.85;67.04
10064;BME280;5071;52.360;13.134;2022-08-21T07:29:26;101209.22;;;20.16;64.35
10064;BME280;5071;52.360;13.134;2022-08-21T07:34:28;101206.53;;;19.75;66.18
10064;BME280;5071;52.360;13.134;2022-08-21T07:39:30;101214.00;;;20.10;64.56
10064;BME280;5071;52.360;13.134;2022-08-21T07:44:33;101214.81;;;20.51;63.54
10064;BME280;5071;52.360;13.134;2022-08-21T07:49:36;101217.72;;;20.67;62.14
10064;BME280;5071;52.360;13.134;2022-08-21T07:54:38;101206.25;;;21.19;60.05
10064;BME280;5071;52.360;13.134;2022-08-21T07:59:42;101202.25;;;21.26;59.62
10064;BME280;5071;52.360;13.134;2022-08-21T08:04:44;101187.50;;;21.33;58.02
10064;BME280;5071;52.360;13.134;2022-08-21T08:09:52;101190.84;;;21.21;57.02
10064;BME280;5071;52.360;13.134;2022-08-21T08:14:56;101186.56;;;21.34;57.54
10064;BME280;5071;52.360;13.134;2022-08-21T08:19:58;101181.78;;;21.40;56.80
10064;BME280;5071;52.360;13.134;2022-08-21T08:25:02;101192.13;;;21.68;57.46
10064;BME280;5071;52.360;13.134;2022-08-21T08:30:14;101192.00;;;21.69;58.38
10064;BME280;5071;52.360;13.134;2022-08-21T08:35:16;101203.44;;;22.27;56.24
10064;BME280;5071;52.360;13.134;2022-08-21T08:40:41;101214.34;;;22.08;55.08
10064;BME280;5071;52.360;13.134;2022-08-21T08:45:50;101206.44;;;22.38;54.63
10064;BME280;5071;52.360;13.134;2022-08-21T08:50:54;101213.31;;;22.77;52.74
10064;BME280;5071;52.360;13.134;2022-08-21T08:55:57;101199.75;;;22.45;53.44
10064;BME280;5071;52.360;13.134;2022-08-21T09:01:07;101206.00;;;22.30;51.85
10064;BME280;5071;52.360;13.134;2022-08-21T09:06:16;101196.03;;;22.64;51.37
10064;BME280;5071;52.360;13.134;2022-08-21T09:11:26;101194.13;;;22.48;51.62
10064;BME280;5071;52.360;13.134;2022-08-21T09:16:40;101200.72;;;22.76;48.77
10064;BME280;5071;52.360;13.134;2022-08-21T09:21:53;101205.72;;;22.68;49.16
10064;BME280;5071;52.360;13.134;2022-08-21T09:27:04;101208.13;;;22.06;51.24
10064;BME280;5071;52.360;13.134;2022-08-21T09:32:15;101210.63;;;22.44;48.94
10064;BME280;5071;52.360;13.134;2022-08-21T09:37:19;101203.88;;;22.35;49.89
10064;BME280;5071;52.360;13.134;2022-08-21T09:42:24;101203.63;;;22.73;48.03
10064;BME280;5071;52.360;13.134;2022-08-21T09:47:27;101187.94;;;23.88;47.30
10064;BME280;5071;52.360;13.134;2022-08-21T09:52:29;101201.53;;;24.45;45.38
10064;BME280;5071;52.360;13.134;2022-08-21T09:57:31;101195.53;;;24.26;44.54
10064;BME280;5071;52.360;13.134;2022-08-21T10:02:35;101192.94;;;25.09;41.93
10064;BME280;5071;52.360;13.134;2022-08-21T10:07:37;101199.09;;;26.44;41.09
10064;BME280;5071;52.360;13.134;2022-08-21T10:12:46;101194.50;;;26.57;37.99
10064;BME280;5071;52.360;13.134;2022-08-21T10:18:01;101193.75;;;26.55;40.30
10064;BME280;5071;52.360;13.134;2022-08-21T10:23:25;101196.28;;;26.46;40.05
10064;BME280;5071;52.360;13.134;2022-08-21T10:28:32;101189.38;;;27.15;37.43
10064;BME280;5071;52.360;13.134;2022-08-21T10:33:46;101177.00;;;28.18;37.77
10064;BME280;5071;52.360;13.134;2022-08-21T10:38:57;101178.41;;;27.52;37.76
10064;BME280;5071;52.360;13.134;2022-08-21T10:44:26;101170.34;;;26.79;38.67
10064;BME280;5071;52.360;13.134;2022-08-21T10:49:38;101183.41;;;27.10;38.64
10064;BME280;5071;52.360;13.134;2022-08-21T10:54:45;101189.31;;;26.67;40.08
10064;BME280;5071;52.360;13.134;2022-08-21T11:00:16;101183.41;;;27.10;39.55
10064;BME280;5071;52.360;13.134;2022-08-21T11:05:25;101178.94;;;25.83;39.77
10064;BME280;5071;52.360;13.134;2022-08-21T11:10:33;101179.97;;;25.94;38.51
10064;BME280;5071;52.360;13.134;2022-08-21T11:15:47;101178.66;;;26.00;37.22
10064;BME280;5071;52.360;13.134;2022-08-21T11:20:59;101169.13;;;26.83;37.29
10064;BME280;5071;52.360;13.134;2022-08-21T11:26:07;101167.56;;;27.15;35.52
10064;BME280;5071;52.360;13.134;2022-08-21T11:31:20;101160.78;;;27.21;37.52
10064;BME280;5071;52.360;13.134;2022-08-21T11:36:32;101168.84;;;26.49;37.93
10064;BME280;5071;52.360;13.134;2022-08-21T11:41:40;101172.16;;;26.78;35.70
10064;BME280;5071;52.360;13.134;2022-08-21T11:46:48;101164.78;;;27.04;38.19
10064;BME280;5071;52.360;13.134;2022-08-21T11:51:59;101165.03;;;27.01;36.65
10064;BME280;5071;52.360;13.134;2022-08-21T11:57:07;101158.50;;;26.91;37.92
10064;BME280;5071;52.360;13.134;2022-08-21T12:02:15;101146.69;;;27.03;37.57
10064;BME280;5071;52.360;13.134;2022-08-21T12:07:33;101149.22;;;26.56;38.16
10064;BME280;5071;52.360;13.134;2022-08-21T12:12:38;101147.53;;;25.38;40.01
10064;BME280;5071;52.360;13.134;2022-08-21T12:17:50;101148.66;;;26.02;40.37
10064;BME280;5071;52.360;13.134;2022-08-21T12:23:03;101140.94;;;25.55;40.86
10064;BME280;5071;52.360;13.134;2022-08-21T12:28:08;101140.47;;;25.49;40.71
10064;BME280;5071;52.360;13.134;2022-08-21T12:33:21;101143.81;;;26.18;39.79
10064;BME280;5071;52.360;13.134;2022-08-21T12:38:27;101127.91;;;26.37;39.43
10064;BME280;5071;52.360;13.134;2022-08-21T12:43:33;101141.66;;;26.23;38.69
10064;BME280;5071;52.360;13.134;2022-08-21T12:48:42;101128.13;;;26.47;39.88
10064;BME280;5071;52.360;13.134;2022-08-21T12:53:49;101125.94;;;26.40;39.88
10064;BME280;5071;52.360;13.134;2022-08-21T12:58:55;101128.56;;;25.90;40.56
10064;BME280;5071;52.360;13.134;2022-08-21T13:03:59;101135.03;;;25.49;40.41
10064;BME280;5071;52.360;13.134;2022-08-21T13:09:10;101141.75;;;25.83;39.67
10064;BME280;5071;52.360;13.134;2022-08-21T13:14:15;101129.91;;;25.97;39.86
10064;BME280;5071;52.360;13.134;2022-08-21T13:19:20;101124.28;;;25.60;39.46
10064;BME280;5071;52.360;13.134;2022-08-21T13:24:28;101127.19;;;26.72;39.69
10064;BME280;5071;52.360;13.134;2022-08-21T13:29:46;101141.41;;;27.13;36.91
10064;BME280;5071;52.360;13.134;2022-08-21T13:34:54;101142.00;;;26.06;41.26
10064;BME280;5071;52.360;13.134;2022-08-21T13:39:58;101130.09;;;25.68;40.91
10064;BME280;5071;52.360;13.134;2022-08-21T13:45:00;101128.56;;;25.90;40.87
10064;BME280;5071;52.360;13.134;2022-08-21T13:50:02;101141.94;;;25.80;40.17
10064;BME280;5071;52.360;13.134;2022-08-21T13:55:13;101133.78;;;25.00;42.69
10064;BME280;5071;52.360;13.134;2022-08-21T14:00:17;101134.47;;;24.62;42.96
10064;BME280;5071;52.360;13.134;2022-08-21T14:05:21;101132.16;;;24.56;43.31
10064;BME280;5071;52.360;13.134;2022-08-21T14:10:25;101125.66;;;24.15;44.58
10064;BME280;5071;52.360;13.134;2022-08-21T14:15:29;101134.59;;;24.17;45.08
10064;BME280;5071;52.360;13.134;2022-08-21T14:20:34;101132.56;;;24.35;44.25
10064;BME280;5071;52.360;13.134;2022-08-21T14:25:40;101129.94;;;24.34;44.67
10064;BME280;5071;52.360;13.134;2022-08-21T14:30:46;101125.75;;;24.57;44.74
10064;BME280;5071;52.360;13.134;2022-08-21T14:35:52;101128.81;;;24.79;44.84
10064;BME280;5071;52.360;13.134;2022-08-21T14:40:59;101127.03;;;24.93;43.91
10064;BME280;5071;52.360;13.134;2022-08-21T14:46:01;101123.22;;;24.68;44.83
10064;BME280;5071;52.360;13.134;2022-08-21T14:51:03;101123.94;;;24.84;45.01
10064;BME280;5071;52.360;13.134;2022-08-21T14:56:07;101114.09;;;24.69;44.52
10064;BME280;5071;52.360;13.134;2022-08-21T15:01:10;101126.50;;;24.73;44.12
10064;BME280;5071;52.360;13.134;2022-08-21T15:06:13;101113.84;;;24.87;43.86
10064;BME280;5071;52.360;13.134;2022-08-21T15:11:20;101117.22;;;24.63;44.93
10064;BME280;5071;52.360;13.134;2022-08-21T15:16:41;101115.56;;;24.60;43.53
10064;BME280;5071;52.360;13.134;2022-08-21T15:21:43;101109.44;;;24.71;46.25
10064;BME280;5071;52.360;13.134;2022-08-21T15:26:46;101104.94;;;24.57;44.24
10064;BME280;5071;52.360;13.134;2022-08-21T15:31:54;101100.78;;;24.52;44.73
10064;BME280;5071;52.360;13.134;2022-08-21T15:36:57;101096.91;;;23.98;43.64
10064;BME280;5071;52.360;13.134;2022-08-21T15:42:01;101103.03;;;24.16;44.44
10064;BME280;5071;52.360;13.134;2022-08-21T15:47:13;101105.03;;;24.56;43.63
10064;BME280;5071;52.360;13.134;2022-08-21T15:52:18;101098.22;;;24.34;44.61
10064;BME280;5071;52.360;13.134;2022-08-21T15:57:24;101094.78;;;24.74;43.74
10064;BME280;5071;52.360;13.134;2022-08-21T16:02:49;101089.06;;;25.46;41.70
10064;BME280;5071;52.360;13.134;2022-08-21T16:07:52;101092.84;;;25.43;41.32
10064;BME280;5071;52.360;13.134;2022-08-21T16:12:58;101088.69;;;24.97;41.88
10064;BME280;5071;52.360;13.134;2022-08-21T16:18:04;101095.63;;;24.61;42.72
10064;BME280;5071;52.360;13.134;2022-08-21T16:23:06;101096.78;;;24.84;42.23
10064;BME280;5071;52.360;13.134;2022-08-21T16:28:13;101099.88;;;24.93;43.43
10064;BME280;5071;52.360;13.134;2022-08-21T16:33:21;101095.88;;;25.26;42.06
10064;BME280;5071;52.360;13.134;2022-08-21T16:38:24;101088.91;;;24.67;42.32
10064;BME280;5071;52.360;13.134;2022-08-21T16:43:28;101092.88;;;24.89;41.33
10064;BME280;5071;52.360;13.134;2022-08-21T16:48:31;101087.22;;;24.79;41.98
10064;BME280;5071;52.360;13.134;2022-08-21T16:53:33;101086.53;;;24.75;42.61
10064;BME280;5071;52.360;13.134;2022-08-21T16:58:39;101079.84;;;25.08;43.86
10064;BME280;5071;52.360;13.134;2022-08-21T17:03:43;101083.59;;;25.06;42.33
10064;BME280;5071;52.360;13.134;2022-08-21T17:08:46;101079.53;;;24.86;42.53
10064;BME280;5071;52.360;13.134;2022-08-21T17:13:56;101081.88;;;24.77;42.75
10064;BME280;5071;52.360;13.134;2022-08-21T17:18:59;101080.19;;;24.62;43.33
10064;BME280;5071;52.360;13.134;2022-08-21T17:24:01;101080.63;;;24.27;44.33
10064;BME280;5071;52.360;13.134;2022-08-21T17:29:04;101080.25;;;24.19;44.28
10064;BME280;5071;52.360;13.134;2022-08-21T17:34:06;101078.34;;;24.06;44.23
10064;BME280;5071;52.360;13.134;2022-08-21T17:39:08;101085.50;;;23.79;45.63
10064;BME280;5071;52.360;13.134;2022-08-21T17:44:14;101084.34;;;23.53;47.88
10064;BME280;5071;52.360;13.134;2022-08-21T17:49:19;101085.56;;;23.33;46.20
10064;BME280;5071;52.360;13.134;2022-08-21T17:54:21;101091.03;;;23.01;49.12
10064;BME280;5071;52.360;13.134;2022-08-21T17:59:25;101089.41;;;22.66;49.95
10064;BME280;5071;52.360;13.134;2022-08-21T18:04:27;101100.59;;;22.28;50.11
10064;BME280;5071;52.360;13.134;2022-08-21T18:09:31;101100.84;;;21.90;52.70
10064;BME280;5071;52.360;13.134;2022-08-21T18:14:36;101109.06;;;21.54;54.44
10064;BME280;5071;52.360;13.134;2022-08-21T18:19:41;101109.19;;;21.16;56.54
10064;BME280;5071;52.360;13.134;2022-08-21T18:24:50;101105.06;;;20.72;58.32
10064;BME280;5071;52.360;13.134;2022-08-21T18:29:56;101111.63;;;20.48;58.73
10064;BME280;5071;52.360;13.134;2022-08-21T18:35:01;101112.91;;;20.20;60.03
10064;BME280;5071;52.360;13.134;2022-08-21T18:40:05;101111.44;;;19.94;61.05
10064;BME280;5071;52.360;13.134;2022-08-21T18:45:12;101108.03;;;19.68;62.32
10064;BME280;5071;52.360;13.134;2022-08-21T18:50:18;101112.91;;;19.39;64.79
10064;BME280;5071;52.360;13.134;2022-08-21T18:55:21;101116.88;;;19.09;66.41
10064;BME280;5071;52.360;13.134;2022-08-21T19:00:30;101116.91;;;18.87;67.48
10064;BME280;5071;52.360;13.134;2022-08-21T19:05:34;101122.25;;;18.64;69.12
10064;BME280;5071;52.360;13.134;2022-08-21T19:10:40;101123.22;;;18.40;69.01
10064;BME280;5071;52.360;13.134;2022-08-21T19:15:48;101128.13;;;18.29;70.79
10064;BME280;5071;52.360;13.134;2022-08-21T19:20:51;101135.84;;;18.14;71.44
10064;BME280;5071;52.360;13.134;2022-08-21T19:25:55;101143.75;;;17.94;72.59
10064;BME280;5071;52.360;13.134;2022-08-21T19:31:08;101135.22;;;17.81;72.57
10064;BME280;5071;52.360;13.134;2022-08-21T19:36:12;101129.22;;;17.74;72.99
10064;BME280;5071;52.360;13.134;2022-08-21T19:41:15;101127.78;;;17.64;73.23
10064;BME280;5071;52.360;13.134;2022-08-21T19:46:23;101127.56;;;17.45;74.00
10064;BME280;5071;52.360;13.134;2022-08-21T19:51:27;101135.44;;;17.23;74.10
10064;BME280;5071;52.360;13.134;2022-08-21T19:56:31;101134.06;;;17.11;74.26
10064;BME280;5071;52.360;13.134;2022-08-21T20:01:36;101130.34;;;16.88;74.97
10064;BME280;5071;52.360;13.134;2022-08-21T20:06:41;101127.97;;;16.78;76.80
10064;BME280;5071;52.360;13.134;2022-08-21T20:11:45;101127.63;;;16.60;76.28
10064;BME280;5071;52.360;13.134;2022-08-21T20:16:52;101126.34;;;16.44;77.94
10064;BME280;5071;52.360;13.134;2022-08-21T20:21:55;101122.84;;;16.42;77.64
10064;BME280;5071;52.360;13.134;2022-08-21T20:26:57;101128.75;;;16.23;77.47
10064;BME280;5071;52.360;13.134;2022-08-21T20:32:02;101126.47;;;16.09;78.11
10064;BME280;5071;52.360;13.134;2022-08-21T20:37:04;101132.09;;;16.00;79.30
10064;BME280;5071;52.360;13.134;2022-08-21T20:42:07;101132.97;;;16.01;79.24
10064;BME280;5071;52.360;13.134;2022-08-21T20:47:10;101135.41;;;16.08;78.95
10064;BME280;5071;52.360;13.134;2022-08-21T20:52:14;101128.06;;;15.85;78.71
10064;BME280;5071;52.360;13.134;2022-08-21T20:57:19;101138.19;;;15.72;80.01
10064;BME280;5071;52.360;13.134;2022-08-21T21:02:31;101136.88;;;15.56;80.09
10064;BME280;5071;52.360;13.134;2022-08-21T21:07:50;101145.22;;;15.42;80.38
10064;BME280;5071;52.360;13.134;2022-08-21T21:12:57;101153.47;;;15.34;80.91
10064;BME280;5071;52.360;13.134;2022-08-21T21:18:08;101147.31;;;15.31;81.57
10064;BME280;5071;52.360;13.134;2022-08-21T21:23:22;101160.00;;;15.23;81.36
10064;BME280;5071;52.360;13.134;2022-08-21T21:28:32;101152.88;;;15.22;81.30
10064;BME280;5071;52.360;13.134;2022-08-21T21:33:37;101159.53;;;15.05;81.55
10064;BME280;5071;52.360;13.134;2022-08-21T21:38:42;101156.09;;;15.00;82.14
10064;BME280;5071;52.360;13.134;2022-08-21T21:44:18;101158.91;;;14.94;82.20
10064;BME280;5071;52.360;13.134;2022-08-21T21:49:34;101165.88;;;15.01;82.18
10064;BME280;5071;52.360;13.134;2022-08-21T21:54:49;101171.63;;;14.83;81.99
10064;BME280;5071;52.360;13.134;2022-08-21T21:59:57;101175.41;;;14.75;83.30
10064;BME280;5071;52.360;13.134;2022-08-21T22:05:13;101180.19;;;14.60;83.27
10064;BME280;5071;52.360;13.134;2022-08-21T22:10:35;101178.66;;;14.46;84.34
10064;BME280;5071;52.360;13.134;2022-08-21T22:16:08;101184.97;;;14.44;83.84
10064;BME280;5071;52.360;13.134;2022-08-21T22:21:21;101187.91;;;14.30;84.05
10064;BME280;5071;52.360;13.134;2022-08-21T22:26:50;101182.72;;;14.22;85.18
10064;BME280;5071;52.360;13.134;2022-08-21T22:32:06;101180.13;;;14.19;85.10
10064;BME280;5071;52.360;13.134;2022-08-21T22:37:44;101191.56;;;14.24;85.27
10064;BME280;5071;52.360;13.134;2022-08-21T22:43:05;101183.69;;;14.18;84.49
10064;BME280;5071;52.360;13.134;2022-08-21T22:48:23;101177.66;;;14.08;85.22
10064;BME280;5071;52.360;13.134;2022-08-21T22:53:35;101190.19;;;14.05;85.20
10064;BME280;5071;52.360;13.134;2022-08-21T22:58:52;101187.75;;;13.92;85.31
10064;BME280;5071;52.360;13.134;2022-08-21T23:04:23;101177.41;;;13.74;85.56
10064;BME280;5071;52.360;13.134;2022-08-21T23:09:47;101179.34;;;13.66;86.48
10064;BME280;5071;52.360;13.134;2022-08-21T23:14:57;101175.69;;;13.73;86.99
10064;BME280;5071;52.360;13.134;2022-08-21T23:20:14;101179.16;;;13.78;86.50
10064;BME280;5071;52.360;13.134;2022-08-21T23:25:49;101174.16;;;13.59;86.69
10064;BME280;5071;52.360;13.134;2022-08-21T23:31:21;101172.38;;;13.58;86.74
10064;BME280;5071;52.360;13.134;2022-08-21T23:36:52;101171.44;;;13.61;86.80
10064;BME280;5071;52.360;13.134;2022-08-21T23:42:25;101164.47;;;13.54;86.64
10064;BME280;5071;52.360;13.134;2022-08-21T23:47:41;101169.91;;;13.48;86.84
10064;BME280;5071;52.360;13.134;2022-08-21T23:53:12;101176.22;;;13.42;86.94
10064;BME280;5071;52.360;13.134;2022-08-21T23:58:38;101182.66;;;13.27;86.99
